createdAt,value
2019-03-28T00:00:59.477Z,59.06
2019-03-28T00:03:25.944Z,59.29
2019-03-28T00:05:52.429Z,60.07
2019-03-28T00:08:19.115Z,59.58
2019-03-28T00:10:45.429Z,59.39
2019-03-28T00:13:11.970Z,59.60
2019-03-28T00:15:38.552Z,59.40
2019-03-28T00:18:05.056Z,60.01
2019-03-28T00:20:31.435Z,60.43
2019-03-28T00:23:05.747Z,60.13
2019-03-28T00:25:32.122Z,59.94
2019-03-28T00:27:58.822Z,60.70
2019-03-28T00:30:25.202Z,60.34
2019-03-28T00:32:52.330Z,60.33
2019-03-28T00:35:19.987Z,60.71
2019-03-28T00:37:46.482Z,61.40
2019-03-28T00:40:13.040Z,60.75
2019-03-28T00:42:39.429Z,62.92
2019-03-28T00:45:07.246Z,63.71
2019-03-28T00:47:34.072Z,64.25
2019-03-28T00:50:00.446Z,64.00
2019-03-28T00:52:26.750Z,63.41
2019-03-28T00:54:53.339Z,62.36
2019-03-28T00:57:19.778Z,62.23
2019-03-28T00:59:46.285Z,61.66
2019-03-28T01:02:12.771Z,61.19
2019-03-28T01:04:39.399Z,61.90
2019-03-28T01:07:05.778Z,62.87
2019-03-28T01:09:32.359Z,63.67
2019-03-28T01:11:58.775Z,63.28
2019-03-28T01:14:25.282Z,62.83
2019-03-28T01:16:51.762Z,62.78
2019-03-28T01:19:18.162Z,61.64
2019-03-28T01:21:44.849Z,61.44
2019-03-28T01:24:11.438Z,61.28
2019-03-28T01:26:37.929Z,62.41
2019-03-28T01:29:04.302Z,63.24
2019-03-28T01:31:30.718Z,62.70
2019-03-28T01:33:57.419Z,62.07
2019-03-28T01:36:23.871Z,61.58
2019-03-28T01:38:50.259Z,62.42
2019-03-28T01:41:16.732Z,61.82
2019-03-28T01:43:43.208Z,61.98
2019-03-28T01:46:09.688Z,62.05
2019-03-28T01:48:36.106Z,62.89
2019-03-28T01:51:02.730Z,62.36
2019-03-28T01:53:29.243Z,62.65
2019-03-28T01:55:55.846Z,64.02
2019-03-28T01:58:22.563Z,64.42
2019-03-28T02:00:49.111Z,63.82
2019-03-28T02:03:15.617Z,64.34
2019-03-28T02:05:42.296Z,63.39
2019-03-28T02:08:08.814Z,63.19
2019-03-28T02:10:35.386Z,63.10
2019-03-28T02:13:02.010Z,63.35
2019-03-28T02:15:28.733Z,63.11
2019-03-28T02:17:55.412Z,62.96
2019-03-28T02:20:21.835Z,63.18
2019-03-28T02:22:48.440Z,63.29
2019-03-28T02:25:14.953Z,63.67
2019-03-28T02:27:41.441Z,64.35
2019-03-28T02:30:08.669Z,63.68
2019-03-28T02:32:35.039Z,63.58
2019-03-28T02:35:03.190Z,63.09
2019-03-28T02:37:30.517Z,63.06
2019-03-28T02:39:57.147Z,63.66
2019-03-28T02:42:23.763Z,63.80
2019-03-28T02:44:50.438Z,63.71
2019-03-28T02:47:17.021Z,63.20
2019-03-28T02:49:43.445Z,63.34
2019-03-28T02:52:10.101Z,63.21
2019-03-28T02:54:37.051Z,63.26
2019-03-28T02:57:04.128Z,63.53
2019-03-28T02:59:30.539Z,63.58
2019-03-28T03:01:57.300Z,63.55
2019-03-28T03:04:24.081Z,63.52
2019-03-28T03:06:50.988Z,63.45
2019-03-28T03:09:17.359Z,63.57
2019-03-28T03:11:44.232Z,63.94
2019-03-28T03:14:11.886Z,64.15
2019-03-28T03:16:38.878Z,64.26
2019-03-28T03:19:05.475Z,63.67
2019-03-28T03:21:31.994Z,64.26
2019-03-28T03:23:58.818Z,64.86
2019-03-28T03:26:25.295Z,65.59
2019-03-28T03:28:51.713Z,66.21
2019-03-28T03:31:21.228Z,66.73
2019-03-28T03:33:46.858Z,65.86
2019-03-28T03:36:13.970Z,66.87
2019-03-28T03:38:40.722Z,67.95
2019-03-28T03:41:07.523Z,68.41
2019-03-28T03:43:34.020Z,68.91
2019-03-28T03:46:01.660Z,68.85
2019-03-28T03:48:28.672Z,68.67
2019-03-28T03:50:55.396Z,68.53
2019-03-28T03:53:21.671Z,67.61
2019-03-28T03:55:48.128Z,66.72
2019-03-28T03:58:16.853Z,66.79
2019-03-28T04:00:43.203Z,66.88
2019-03-28T04:03:09.938Z,67.93
2019-03-28T04:05:36.785Z,68.84
2019-03-28T04:08:04.131Z,69.54
2019-03-28T04:10:30.974Z,69.45
2019-03-28T04:12:57.631Z,70.59
2019-03-28T04:15:24.761Z,70.03
2019-03-28T04:17:51.500Z,70.16
2019-03-28T04:20:18.242Z,70.00
2019-03-28T04:22:45.393Z,70.10
2019-03-28T04:25:12.395Z,70.59
2019-03-28T04:27:39.898Z,70.97
2019-03-28T04:30:08.195Z,70.79
2019-03-28T04:32:35.016Z,70.39
2019-03-28T04:35:05.502Z,70.87
2019-03-28T04:37:32.632Z,69.89
2019-03-28T04:39:59.411Z,70.53
2019-03-28T04:42:26.788Z,69.58
2019-03-28T04:44:54.654Z,69.11
2019-03-28T04:47:21.288Z,69.36
2019-03-28T04:49:47.825Z,69.93
2019-03-28T04:52:14.365Z,70.31
2019-03-28T04:54:40.898Z,69.69
2019-03-28T04:57:07.540Z,69.24
2019-03-28T04:59:34.682Z,68.85
2019-03-28T05:02:03.651Z,69.53
2019-03-28T05:04:29.906Z,69.58
2019-03-28T05:06:56.644Z,69.99
2019-03-28T05:09:23.491Z,70.13
2019-03-28T05:11:50.436Z,69.72
2019-03-28T05:14:17.073Z,70.40
2019-03-28T05:16:43.914Z,70.84
2019-03-28T05:19:10.588Z,70.53
2019-03-28T05:21:37.292Z,70.18
2019-03-28T05:24:03.829Z,70.27
2019-03-28T05:26:30.570Z,71.04
2019-03-28T05:28:58.145Z,70.85
2019-03-28T05:31:25.584Z,71.34
2019-03-28T05:33:52.629Z,70.39
2019-03-28T05:36:19.188Z,70.17
2019-03-28T05:38:45.904Z,70.25
2019-03-28T05:41:12.444Z,70.25
2019-03-28T05:43:38.978Z,70.38
2019-03-28T05:46:05.615Z,70.73
2019-03-28T05:48:32.253Z,71.24
2019-03-28T05:50:59.093Z,71.36
2019-03-28T05:53:25.650Z,70.40
2019-03-28T05:55:51.951Z,70.78
2019-03-28T05:58:18.357Z,70.29
2019-03-28T06:00:44.754Z,71.60
2019-03-28T06:03:11.207Z,70.94
2019-03-28T06:05:37.579Z,70.90
2019-03-28T06:08:05.885Z,70.80
2019-03-28T06:10:32.357Z,71.51
2019-03-28T06:12:58.883Z,71.61
2019-03-28T06:15:25.544Z,72.30
2019-03-28T06:17:51.927Z,71.45
2019-03-28T06:20:19.731Z,72.46
2019-03-28T06:22:46.599Z,71.05
2019-03-28T06:25:13.325Z,70.94
2019-03-28T06:27:39.932Z,71.57
2019-03-28T06:30:08.954Z,71.68
2019-03-28T06:32:42.733Z,71.97
2019-03-28T06:35:04.651Z,71.59
2019-03-28T06:37:31.015Z,71.68
2019-03-28T06:39:57.431Z,71.97
2019-03-28T06:42:23.818Z,71.61
2019-03-28T06:44:50.932Z,71.28
2019-03-28T06:47:17.348Z,72.11
2019-03-28T06:49:43.869Z,72.05
2019-03-28T06:52:10.251Z,72.26
2019-03-28T06:54:36.643Z,72.31
2019-03-28T06:57:03.138Z,72.19
2019-03-28T06:59:37.363Z,71.93
2019-03-28T07:01:57.918Z,71.92
2019-03-28T07:04:24.407Z,72.01
2019-03-28T07:06:50.976Z,72.94
2019-03-28T07:09:18.295Z,73.99
2019-03-28T07:11:45.054Z,74.38
2019-03-28T07:14:11.600Z,75.44
2019-03-28T07:16:38.634Z,75.59
2019-03-28T07:19:05.117Z,75.61
2019-03-28T07:21:31.602Z,75.57
2019-03-28T07:23:58.259Z,74.76
2019-03-28T07:26:24.919Z,75.42
2019-03-28T07:28:54.215Z,75.36
2019-03-28T07:31:19.823Z,74.23
2019-03-28T07:33:46.494Z,75.45
2019-03-28T07:36:13.548Z,73.04
2019-03-28T07:38:40.122Z,73.86
2019-03-28T07:41:06.772Z,72.48
2019-03-28T07:43:33.223Z,71.01
2019-03-28T07:45:59.944Z,70.99
2019-03-28T07:48:26.414Z,70.88
2019-03-28T07:50:53.147Z,70.82
2019-03-28T07:53:19.960Z,70.72
2019-03-28T07:55:47.716Z,70.60
2019-03-28T07:58:14.454Z,71.25
2019-03-28T08:00:41.062Z,71.13
2019-03-28T08:03:07.603Z,71.45
2019-03-28T08:05:34.067Z,71.60
2019-03-28T08:08:00.773Z,71.14
2019-03-28T08:10:27.322Z,71.77
2019-03-28T08:12:53.943Z,71.21
2019-03-28T08:15:21.451Z,70.99
2019-03-28T08:17:48.250Z,71.50
2019-03-28T08:20:15.201Z,71.86
2019-03-28T08:22:41.714Z,72.32
2019-03-28T08:25:11.687Z,72.29
2019-03-28T08:27:37.618Z,71.68
2019-03-28T08:30:18.125Z,72.95
2019-03-28T08:32:39.668Z,73.47
2019-03-28T08:35:07.652Z,73.47
2019-03-28T08:37:35.827Z,73.78
2019-03-28T08:40:05.732Z,74.08
2019-03-28T08:42:32.271Z,74.18
2019-03-28T08:44:58.757Z,73.87
2019-03-28T08:47:25.173Z,73.43
2019-03-28T08:49:51.552Z,73.63
2019-03-28T08:52:18.111Z,73.95
2019-03-28T08:54:44.556Z,74.20
2019-03-28T08:57:11.147Z,74.44
2019-03-28T08:59:43.918Z,73.80
2019-03-28T09:02:28.279Z,74.11
2019-03-28T09:04:54.690Z,73.94
2019-03-28T09:07:21.163Z,75.17
2019-03-28T09:09:47.699Z,74.02
2019-03-28T09:12:14.430Z,74.49
2019-03-28T09:17:25.992Z,74.49
2019-03-28T09:19:52.626Z,72.59
2019-03-28T09:22:19.097Z,71.68
2019-03-28T09:24:45.584Z,72.17
2019-03-28T09:27:12.309Z,71.70
2019-03-28T09:29:38.714Z,72.69
2019-03-28T09:32:05.306Z,71.01
2019-03-28T09:34:31.807Z,70.89
2019-03-28T09:36:58.635Z,70.00
2019-03-28T09:39:25.169Z,70.36
2019-03-28T09:41:51.734Z,69.77
2019-03-28T09:44:18.465Z,69.73
2019-03-28T09:46:45.123Z,69.48
2019-03-28T09:49:11.559Z,69.19
2019-03-28T09:51:38.075Z,69.47
2019-03-28T09:54:04.550Z,70.36
2019-03-28T09:56:30.941Z,69.74
2019-03-28T09:59:00.252Z,70.17
2019-03-28T10:01:25.764Z,69.75
2019-03-28T10:03:52.255Z,70.01
2019-03-28T10:06:19.023Z,70.51
2019-03-28T10:08:45.410Z,71.36
2019-03-28T10:11:11.804Z,71.62
2019-03-28T10:13:38.427Z,71.43
2019-03-28T10:16:05.041Z,71.86
2019-03-28T10:18:31.798Z,71.51
2019-03-28T10:20:58.536Z,72.86
2019-03-28T10:23:25.351Z,71.77
2019-03-28T10:25:52.152Z,71.94
2019-03-28T10:28:18.524Z,72.45
2019-03-28T10:30:45.230Z,72.70
2019-03-28T10:33:11.950Z,70.79
2019-03-28T10:35:38.608Z,70.64
2019-03-28T10:38:05.318Z,70.64
2019-03-28T10:40:31.979Z,70.29
2019-03-28T10:43:00.360Z,70.65
2019-03-28T10:45:27.407Z,69.37
2019-03-28T10:47:53.949Z,68.25
2019-03-28T10:50:20.578Z,68.33
2019-03-28T10:52:48.558Z,69.52
2019-03-28T10:55:15.084Z,69.01
2019-03-28T10:57:41.516Z,68.15
2019-03-28T11:00:09.013Z,69.64
2019-03-28T11:02:35.917Z,69.64
2019-03-28T11:05:04.501Z,68.17
2019-03-28T11:07:31.140Z,66.73
2019-03-28T11:09:57.779Z,66.38
2019-03-28T11:12:24.417Z,67.27
2019-03-28T11:14:51.257Z,67.95
2019-03-28T11:17:17.689Z,67.15
2019-03-28T11:19:44.330Z,66.90
2019-03-28T11:22:11.374Z,66.53
2019-03-28T11:24:37.909Z,65.95
2019-03-28T11:27:04.752Z,66.32
2019-03-28T11:29:31.389Z,66.17
2019-03-28T11:31:57.822Z,64.88
2019-03-28T11:34:24.460Z,65.02
2019-03-28T11:36:51.307Z,65.40
2019-03-28T11:39:18.351Z,65.72
2019-03-28T11:41:45.351Z,65.83
2019-03-28T11:44:11.933Z,65.65
2019-03-28T11:46:38.589Z,65.64
2019-03-28T11:49:05.135Z,64.95
2019-03-28T11:51:31.948Z,64.19
2019-03-28T11:53:58.486Z,65.17
2019-03-28T11:56:25.122Z,63.36
2019-03-28T11:58:51.554Z,62.63
2019-03-28T12:01:18.192Z,63.43
2019-03-28T12:03:45.037Z,62.67
2019-03-28T12:06:11.718Z,63.39
2019-03-28T12:16:26.691Z,61.40
2019-03-28T12:18:54.663Z,61.64
2019-03-28T12:21:21.195Z,61.82
2019-03-28T12:23:47.900Z,61.11
2019-03-28T12:26:14.580Z,60.90
2019-03-28T12:28:41.212Z,60.91
2019-03-28T12:31:07.643Z,60.96
2019-03-28T12:33:34.224Z,60.57
2019-03-28T12:36:00.712Z,60.68
2019-03-28T12:38:27.251Z,61.53
2019-03-28T12:40:53.785Z,60.85
2019-03-28T12:43:20.298Z,61.29
2019-03-28T12:45:46.958Z,61.44
2019-03-28T12:48:13.782Z,61.95
2019-03-28T12:50:40.540Z,60.42
2019-03-28T12:53:07.179Z,60.61
2019-03-28T12:55:33.714Z,60.22
2019-03-28T12:58:00.269Z,60.01
2019-03-28T13:00:33.338Z,59.86
2019-03-28T13:03:00.078Z,59.93
2019-03-28T13:05:26.614Z,58.84
2019-03-28T13:07:53.046Z,59.47
2019-03-28T13:10:19.788Z,59.45
2019-03-28T13:12:46.531Z,59.44
2019-03-28T13:15:13.613Z,59.44
2019-03-28T13:17:40.323Z,59.85
2019-03-28T13:20:08.796Z,59.36
2019-03-28T13:22:35.539Z,59.95
2019-03-28T13:25:04.082Z,60.71
2019-03-28T13:27:30.551Z,60.71
2019-03-28T13:29:57.191Z,61.35
2019-03-28T13:32:23.625Z,61.00
2019-03-28T13:34:50.046Z,61.16
2019-03-28T13:37:16.679Z,60.51
2019-03-28T13:39:43.435Z,60.64
2019-03-28T13:42:10.076Z,60.01
2019-03-28T13:44:36.605Z,60.73
2019-03-28T13:47:03.449Z,61.64
2019-03-28T13:49:30.066Z,61.08
2019-03-28T13:51:56.521Z,61.39
2019-03-28T13:54:23.358Z,61.50
2019-03-28T13:56:50.102Z,62.03
2019-03-28T13:59:16.435Z,62.06
2019-03-28T14:01:42.983Z,61.87
2019-03-28T14:04:10.423Z,62.07
2019-03-28T14:06:36.947Z,61.96
2019-03-28T14:09:05.446Z,62.32
2019-03-28T14:11:31.874Z,62.32
2019-03-28T14:13:58.306Z,62.26
2019-03-28T14:16:24.840Z,62.08
2019-03-28T14:18:51.258Z,62.39
2019-03-28T14:21:18.117Z,62.53
2019-03-28T14:23:44.666Z,62.22
2019-03-28T14:26:11.188Z,62.17
2019-03-28T14:28:37.723Z,62.18
2019-03-28T14:31:04.360Z,62.50
2019-03-28T14:33:31.102Z,62.44
2019-03-28T14:35:57.637Z,62.38
2019-03-28T14:38:24.379Z,62.47
2019-03-28T14:40:50.912Z,62.76
2019-03-28T14:43:17.667Z,62.25
2019-03-28T14:45:44.187Z,62.59
2019-03-28T14:48:10.658Z,62.61
2019-03-28T14:50:38.756Z,62.60
2019-03-28T14:53:05.431Z,62.65
2019-03-28T14:55:32.702Z,63.01
2019-03-28T14:58:00.674Z,62.62
2019-03-28T15:00:49.541Z,62.92
2019-03-28T15:03:25.626Z,63.02
2019-03-28T15:05:46.069Z,63.18
2019-03-28T15:08:12.702Z,63.16
2019-03-28T15:10:39.236Z,63.27
2019-03-28T15:13:05.811Z,63.85
2019-03-28T15:15:32.514Z,64.31
2019-03-28T15:17:59.048Z,64.20
2019-03-28T15:20:27.485Z,64.70
2019-03-28T15:22:54.166Z,64.78
2019-03-28T15:25:20.600Z,65.03
2019-03-28T15:27:47.564Z,65.14
2019-03-28T15:30:14.898Z,65.04
2019-03-28T15:32:41.491Z,64.96
2019-03-28T15:35:08.177Z,64.92
2019-03-28T15:37:34.670Z,65.58
2019-03-28T15:40:01.346Z,65.45
2019-03-28T15:42:28.163Z,65.32
2019-03-28T15:44:55.004Z,65.28
2019-03-28T15:47:21.614Z,65.69
2019-03-28T15:49:48.307Z,66.11
2019-03-28T15:52:14.793Z,65.95
2019-03-28T15:54:41.637Z,66.29
2019-03-28T15:57:08.733Z,65.75
2019-03-28T15:59:35.268Z,65.76
2019-03-28T16:02:01.927Z,66.06
2019-03-28T16:04:28.441Z,66.33
2019-03-28T16:06:54.976Z,66.26
2019-03-28T16:09:21.615Z,66.38
2019-03-28T16:12:01.726Z,66.82
2019-03-28T16:14:17.044Z,67.03
2019-03-28T16:16:43.577Z,67.31
2019-03-28T16:19:10.214Z,67.31
2019-03-28T16:21:36.650Z,67.04
2019-03-28T16:24:03.599Z,67.26
2019-03-28T16:26:30.138Z,67.52
2019-03-28T16:28:56.763Z,66.72
2019-03-28T16:31:23.301Z,66.78
2019-03-28T16:33:49.835Z,67.56
2019-03-28T16:36:16.482Z,67.73
2019-03-28T16:38:43.082Z,68.13
2019-03-28T16:41:09.645Z,68.32
2019-03-28T16:43:36.179Z,67.43
2019-03-28T16:46:02.854Z,68.19
2019-03-28T16:48:29.252Z,68.44
2019-03-28T16:50:55.785Z,68.42
2019-03-28T16:53:22.220Z,68.30
2019-03-28T16:55:48.754Z,68.59
2019-03-28T16:58:15.270Z,68.45
2019-03-28T17:00:41.927Z,68.22
2019-03-28T17:03:08.885Z,68.70
2019-03-28T17:05:35.946Z,68.56
2019-03-28T17:08:03.367Z,69.09
2019-03-28T17:10:38.539Z,68.84
2019-03-28T17:13:04.873Z,69.15
2019-03-28T17:15:31.294Z,68.62
2019-03-28T17:17:57.712Z,68.67
2019-03-28T17:20:24.030Z,68.52
2019-03-28T17:22:50.491Z,68.67
2019-03-28T17:25:16.918Z,68.65
2019-03-28T17:27:46.393Z,68.72
2019-03-28T17:30:11.925Z,68.90
2019-03-28T17:32:38.858Z,69.32
2019-03-28T17:35:06.124Z,69.04
2019-03-28T17:37:32.553Z,69.22
2019-03-28T17:39:59.804Z,68.48
2019-03-28T17:42:26.239Z,69.10
2019-03-28T17:44:52.877Z,69.00
2019-03-28T17:47:19.415Z,69.31
2019-03-28T17:49:45.948Z,69.49
2019-03-28T17:52:12.491Z,69.42
2019-03-28T17:54:39.244Z,69.72
2019-03-28T17:57:05.965Z,69.80
2019-03-28T17:59:32.498Z,69.85
2019-03-28T18:01:59.033Z,69.97
2019-03-28T18:04:25.568Z,69.97
2019-03-28T18:06:52.232Z,70.33
2019-03-28T18:09:19.048Z,70.44
2019-03-28T18:11:45.585Z,70.86
2019-03-28T18:14:12.425Z,70.77
2019-03-28T18:16:39.171Z,70.61
2019-03-28T18:19:06.011Z,70.57
2019-03-28T18:21:32.544Z,70.80
2019-03-28T18:23:59.181Z,70.86
2019-03-28T18:26:25.737Z,70.77
2019-03-28T18:28:52.478Z,70.73
2019-03-28T18:31:19.198Z,70.59
2019-03-28T18:33:45.834Z,70.91
2019-03-28T18:36:12.270Z,70.88
2019-03-28T18:38:38.804Z,71.31
2019-03-28T18:41:05.242Z,71.30
2019-03-28T18:43:31.981Z,71.66
2019-03-28T18:45:58.487Z,71.66
2019-03-28T18:48:30.854Z,72.13
2019-03-28T18:50:53.326Z,72.51
2019-03-28T18:53:19.860Z,72.52
2019-03-28T18:55:46.501Z,72.49
2019-03-28T18:58:13.037Z,72.71
2019-03-28T19:00:39.771Z,73.25
2019-03-28T19:03:06.515Z,73.75
2019-03-28T19:05:33.155Z,73.60
2019-03-28T19:07:59.793Z,73.93
2019-03-28T19:10:26.323Z,74.25
2019-03-28T19:12:52.759Z,74.35
2019-03-28T19:15:19.437Z,74.57
2019-03-28T19:17:45.858Z,74.91
2019-03-28T19:20:13.386Z,74.83
2019-03-28T19:22:39.921Z,74.85
2019-03-28T19:25:07.385Z,74.99
2019-03-28T19:27:33.934Z,74.73
2019-03-28T19:30:00.961Z,74.62
2019-03-28T19:32:29.784Z,74.79
2019-03-28T19:34:55.968Z,74.55
2019-03-28T19:37:24.630Z,74.01
2019-03-28T19:39:51.099Z,74.36
2019-03-28T19:42:18.015Z,74.55
2019-03-28T19:44:45.503Z,74.27
2019-03-28T19:47:12.070Z,74.65
2019-03-28T19:49:38.494Z,74.72
2019-03-28T19:52:05.308Z,74.85
2019-03-28T19:54:31.846Z,74.75
2019-03-28T19:56:58.296Z,74.76
2019-03-28T19:59:25.914Z,74.67
2019-03-28T20:01:52.585Z,74.60
2019-03-28T20:04:19.228Z,74.09
2019-03-28T20:06:45.838Z,74.02
2019-03-28T20:09:16.414Z,74.43
2019-03-28T20:11:40.769Z,74.67
2019-03-28T20:14:07.229Z,75.00
2019-03-28T20:16:33.940Z,75.02
2019-03-28T20:19:02.138Z,75.17
2019-03-28T20:21:29.039Z,74.84
2019-03-28T20:23:56.874Z,74.95
2019-03-28T20:26:23.414Z,74.91
2019-03-28T20:28:49.831Z,74.73
2019-03-28T20:31:16.431Z,74.15
2019-03-28T20:33:43.067Z,74.29
2019-03-28T20:36:35.773Z,73.90
2019-03-28T20:38:37.956Z,74.61
2019-03-28T20:41:04.410Z,75.11
2019-03-28T20:43:30.949Z,75.32
2019-03-28T20:45:57.744Z,75.38
2019-03-28T20:48:24.426Z,75.68
2019-03-28T20:50:51.270Z,75.63
2019-03-28T20:53:17.707Z,75.55
2019-03-28T20:55:44.349Z,75.31
2019-03-28T20:58:10.897Z,75.65
2019-03-28T21:00:43.618Z,75.50
2019-03-28T21:03:10.806Z,75.19
2019-03-28T21:05:37.651Z,75.17
2019-03-28T21:08:04.678Z,75.55
2019-03-28T21:10:33.435Z,75.33
2019-03-28T21:12:59.510Z,75.54
2019-03-28T21:15:26.017Z,75.49
2019-03-28T21:17:52.507Z,75.36
2019-03-28T21:20:19.047Z,75.15
2019-03-28T21:22:46.092Z,74.87
2019-03-28T21:25:13.311Z,75.16
2019-03-28T21:27:39.680Z,74.69
2019-03-28T21:30:06.996Z,74.49
2019-03-28T21:32:33.736Z,74.76
2019-03-28T21:35:00.300Z,74.50
2019-03-28T21:37:26.989Z,74.74
2019-03-28T21:39:53.402Z,74.67
2019-03-28T21:42:20.071Z,74.81
2019-03-28T21:44:46.659Z,75.04
2019-03-28T21:47:13.120Z,75.08
2019-03-28T21:49:39.521Z,75.27
2019-03-28T21:52:07.496Z,75.45
2019-03-28T21:54:34.308Z,75.37
2019-03-28T21:57:00.651Z,75.87
2019-03-28T21:59:27.036Z,75.71
2019-03-28T22:01:53.586Z,75.62
2019-03-28T22:04:19.985Z,75.67
2019-03-28T22:06:46.362Z,75.64
2019-03-28T22:09:13.151Z,75.62
2019-03-28T22:11:39.523Z,75.73
2019-03-28T22:14:05.960Z,76.01
2019-03-28T22:16:32.437Z,76.01
2019-03-28T22:18:59.804Z,76.11
2019-03-28T22:21:27.580Z,76.27
2019-03-28T22:23:54.192Z,76.33
2019-03-28T22:26:20.561Z,76.32
2019-03-28T22:28:47.079Z,76.44
2019-03-28T22:31:13.672Z,76.63
2019-03-28T22:33:40.195Z,76.91
2019-03-28T22:36:06.603Z,77.19
2019-03-28T22:38:33.185Z,77.31
2019-03-28T22:40:59.508Z,77.30
2019-03-28T22:43:25.788Z,77.19
2019-03-28T22:45:52.173Z,77.20
2019-03-28T22:48:18.959Z,76.99
2019-03-28T22:50:45.455Z,76.83
2019-03-28T22:53:11.988Z,76.68
2019-03-28T22:55:38.660Z,76.53
2019-03-28T22:58:05.195Z,76.40
2019-03-28T23:00:40.082Z,76.34
2019-03-28T23:03:06.816Z,76.29
2019-03-28T23:05:33.487Z,76.36
2019-03-28T23:07:59.904Z,76.25
2019-03-28T23:10:26.184Z,76.33
2019-03-28T23:12:52.753Z,76.22
2019-03-28T23:15:21.823Z,76.35
2019-03-28T23:17:47.714Z,76.30
2019-03-28T23:20:14.290Z,76.46
2019-03-28T23:22:41.007Z,76.74
2019-03-28T23:25:08.023Z,76.82
2019-03-28T23:27:34.585Z,77.12
2019-03-28T23:30:01.271Z,77.07
2019-03-28T23:32:27.702Z,77.12
2019-03-28T23:34:54.464Z,76.86
2019-03-28T23:37:25.016Z,76.79
2019-03-28T23:39:49.218Z,76.79
2019-03-28T23:42:17.716Z,76.72
2019-03-28T23:44:44.223Z,76.52
2019-03-28T23:47:10.603Z,76.29
2019-03-28T23:49:38.656Z,76.40
2019-03-28T23:52:05.280Z,75.92
2019-03-28T23:54:31.750Z,75.56
2019-03-28T23:56:58.142Z,75.75
2019-03-28T23:59:24.664Z,75.94
